sensor_id;sensor_type;location;lat;lon;timestamp;P1;durP1;ratioP1;P2;durP2;ratioP2
71679;SDS011;59512;42.662;23.254;2024-03-29T00:00:54;4.32;;;0.80;;
71679;SDS011;59512;42.662;23.254;2024-03-29T00:03:24;6.80;;;0.98;;
71679;SDS011;59512;42.662;23.254;2024-03-29T00:05:49;5.10;;;0.80;;
71679;SDS011;59512;42.662;23.254;2024-03-29T00:08:15;5.43;;;0.97;;
71679;SDS011;59512;42.662;23.254;2024-03-29T00:10:40;5.40;;;1.00;;
71679;SDS011;59512;42.662;23.254;2024-03-29T00:13:05;4.97;;;1.10;;
71679;SDS011;59512;42.662;23.254;2024-03-29T00:15:31;4.53;;;0.70;;
71679;SDS011;59512;42.662;23.254;2024-03-29T00:17:57;7.95;;;1.50;;
71679;SDS011;59512;42.662;23.254;2024-03-29T00:20:22;6.27;;;1.40;;
71679;SDS011;59512;42.662;23.254;2024-03-29T00:22:48;7.25;;;1.67;;
71679;SDS011;59512;42.662;23.254;2024-03-29T00:25:14;7.67;;;2.07;;
71679;SDS011;59512;42.662;23.254;2024-03-29T00:27:40;12.23;;;4.63;;
71679;SDS011;59512;42.662;23.254;2024-03-29T00:30:06;10.60;;;3.63;;
71679;SDS011;59512;42.662;23.254;2024-03-29T00:32:32;13.65;;;2.40;;
71679;SDS011;59512;42.662;23.254;2024-03-29T00:34:57;9.03;;;2.40;;
71679;SDS011;59512;42.662;23.254;2024-03-29T00:37:23;7.20;;;2.00;;
71679;SDS011;59512;42.662;23.254;2024-03-29T00:39:49;10.00;;;1.87;;
71679;SDS011;59512;42.662;23.254;2024-03-29T00:42:14;6.45;;;1.77;;
71679;SDS011;59512;42.662;23.254;2024-03-29T00:44:44;7.60;;;1.50;;
71679;SDS011;59512;42.662;23.254;2024-03-29T00:47:10;5.30;;;1.20;;
71679;SDS011;59512;42.662;23.254;2024-03-29T00:49:36;6.43;;;1.40;;
71679;SDS011;59512;42.662;23.254;2024-03-29T00:52:02;6.75;;;1.20;;
71679;SDS011;59512;42.662;23.254;2024-03-29T00:54:28;7.70;;;1.60;;
71679;SDS011;59512;42.662;23.254;2024-03-29T00:56:53;4.67;;;1.00;;
71679;SDS011;59512;42.662;23.254;2024-03-29T00:59:19;4.47;;;1.37;;
71679;SDS011;59512;42.662;23.254;2024-03-29T01:01:45;6.18;;;1.20;;
71679;SDS011;59512;42.662;23.254;2024-03-29T01:04:11;6.77;;;1.27;;
71679;SDS011;59512;42.662;23.254;2024-03-29T01:06:37;4.90;;;1.13;;
71679;SDS011;59512;42.662;23.254;2024-03-29T01:09:02;6.97;;;1.37;;
71679;SDS011;59512;42.662;23.254;2024-03-29T01:11:28;7.03;;;1.48;;
71679;SDS011;59512;42.662;23.254;2024-03-29T01:13:54;6.15;;;1.42;;
71679;SDS011;59512;42.662;23.254;2024-03-29T01:16:20;3.77;;;1.10;;
71679;SDS011;59512;42.662;23.254;2024-03-29T01:18:45;7.07;;;1.50;;
71679;SDS011;59512;42.662;23.254;2024-03-29T01:21:12;6.78;;;1.30;;
71679;SDS011;59512;42.662;23.254;2024-03-29T01:23:37;5.45;;;1.35;;
71679;SDS011;59512;42.662;23.254;2024-03-29T01:26:03;7.20;;;1.17;;
71679;SDS011;59512;42.662;23.254;2024-03-29T01:28:29;5.35;;;1.13;;
71679;SDS011;59512;42.662;23.254;2024-03-29T01:30:54;5.77;;;1.40;;
71679;SDS011;59512;42.662;23.254;2024-03-29T01:33:20;5.47;;;1.50;;
71679;SDS011;59512;42.662;23.254;2024-03-29T01:35:46;6.45;;;1.77;;
71679;SDS011;59512;42.662;23.254;2024-03-29T01:38:11;6.33;;;1.27;;
71679;SDS011;59512;42.662;23.254;2024-03-29T01:40:37;5.90;;;1.30;;
71679;SDS011;59512;42.662;23.254;2024-03-29T01:43:02;7.03;;;1.20;;
71679;SDS011;59512;42.662;23.254;2024-03-29T01:45:28;7.40;;;1.20;;
71679;SDS011;59512;42.662;23.254;2024-03-29T01:47:55;6.50;;;1.50;;
71679;SDS011;59512;42.662;23.254;2024-03-29T01:50:20;7.53;;;1.53;;
71679;SDS011;59512;42.662;23.254;2024-03-29T01:52:46;6.30;;;1.30;;
71679;SDS011;59512;42.662;23.254;2024-03-29T01:55:12;6.93;;;1.40;;
71679;SDS011;59512;42.662;23.254;2024-03-29T01:57:38;6.65;;;1.40;;
71679;SDS011;59512;42.662;23.254;2024-03-29T02:00:04;6.43;;;1.33;;
71679;SDS011;59512;42.662;23.254;2024-03-29T02:02:32;5.78;;;1.80;;
71679;SDS011;59512;42.662;23.254;2024-03-29T02:04:58;9.05;;;1.80;;
71679;SDS011;59512;42.662;23.254;2024-03-29T02:07:24;8.00;;;1.70;;
71679;SDS011;59512;42.662;23.254;2024-03-29T02:09:50;6.45;;;1.88;;
71679;SDS011;59512;42.662;23.254;2024-03-29T02:12:15;6.53;;;1.50;;
71679;SDS011;59512;42.662;23.254;2024-03-29T02:14:41;6.87;;;1.60;;
71679;SDS011;59512;42.662;23.254;2024-03-29T02:17:07;6.63;;;1.60;;
71679;SDS011;59512;42.662;23.254;2024-03-29T02:19:33;5.57;;;1.30;;
71679;SDS011;59512;42.662;23.254;2024-03-29T02:21:59;7.53;;;1.60;;
71679;SDS011;59512;42.662;23.254;2024-03-29T02:24:25;7.35;;;1.52;;
71679;SDS011;59512;42.662;23.254;2024-03-29T02:26:52;6.82;;;1.60;;
71679;SDS011;59512;42.662;23.254;2024-03-29T02:29:20;6.55;;;1.40;;
71679;SDS011;59512;42.662;23.254;2024-03-29T02:31:45;7.03;;;1.40;;
71679;SDS011;59512;42.662;23.254;2024-03-29T02:34:10;6.38;;;1.60;;
71679;SDS011;59512;42.662;23.254;2024-03-29T02:36:36;7.03;;;1.80;;
71679;SDS011;59512;42.662;23.254;2024-03-29T02:39:02;6.57;;;1.87;;
71679;SDS011;59512;42.662;23.254;2024-03-29T02:41:27;7.38;;;1.90;;
71679;SDS011;59512;42.662;23.254;2024-03-29T02:43:55;6.83;;;1.60;;
71679;SDS011;59512;42.662;23.254;2024-03-29T02:46:20;5.85;;;1.48;;
71679;SDS011;59512;42.662;23.254;2024-03-29T02:48:46;7.27;;;1.80;;
71679;SDS011;59512;42.662;23.254;2024-03-29T02:51:11;6.67;;;1.67;;
71679;SDS011;59512;42.662;23.254;2024-03-29T02:53:36;5.85;;;1.48;;
71679;SDS011;59512;42.662;23.254;2024-03-29T02:56:03;7.68;;;1.83;;
71679;SDS011;59512;42.662;23.254;2024-03-29T02:58:29;8.63;;;2.13;;
71679;SDS011;59512;42.662;23.254;2024-03-29T03:00:54;8.03;;;1.60;;
71679;SDS011;59512;42.662;23.254;2024-03-29T03:03:19;6.23;;;1.80;;
71679;SDS011;59512;42.662;23.254;2024-03-29T03:05:45;10.97;;;1.70;;
71679;SDS011;59512;42.662;23.254;2024-03-29T03:08:10;8.82;;;1.65;;
71679;SDS011;59512;42.662;23.254;2024-03-29T03:10:54;7.30;;;1.80;;
71679;SDS011;59512;42.662;23.254;2024-03-29T03:13:27;8.25;;;1.75;;
71679;SDS011;59512;42.662;23.254;2024-03-29T03:15:53;6.80;;;1.80;;
71679;SDS011;59512;42.662;23.254;2024-03-29T03:18:19;6.18;;;1.77;;
71679;SDS011;59512;42.662;23.254;2024-03-29T03:20:54;6.77;;;1.70;;
71679;SDS011;59512;42.662;23.254;2024-03-29T03:23:20;6.85;;;1.90;;
71679;SDS011;59512;42.662;23.254;2024-03-29T03:25:46;6.93;;;1.97;;
71679;SDS011;59512;42.662;23.254;2024-03-29T03:28:18;5.55;;;1.60;;
71679;SDS011;59512;42.662;23.254;2024-03-29T03:30:44;6.37;;;1.43;;
71679;SDS011;59512;42.662;23.254;2024-03-29T03:33:09;6.73;;;1.30;;
71679;SDS011;59512;42.662;23.254;2024-03-29T03:35:35;6.67;;;2.30;;
71679;SDS011;59512;42.662;23.254;2024-03-29T03:38:00;8.03;;;2.20;;
71679;SDS011;59512;42.662;23.254;2024-03-29T03:40:25;7.53;;;2.17;;
71679;SDS011;59512;42.662;23.254;2024-03-29T03:42:51;8.00;;;2.10;;
71679;SDS011;59512;42.662;23.254;2024-03-29T03:45:16;8.90;;;2.33;;
71679;SDS011;59512;42.662;23.254;2024-03-29T03:47:41;5.83;;;1.83;;
71679;SDS011;59512;42.662;23.254;2024-03-29T03:50:07;9.03;;;2.40;;
71679;SDS011;59512;42.662;23.254;2024-03-29T03:52:33;9.23;;;2.55;;
71679;SDS011;59512;42.662;23.254;2024-03-29T03:54:58;6.53;;;1.80;;
71679;SDS011;59512;42.662;23.254;2024-03-29T03:57:23;6.40;;;1.43;;
71679;SDS011;59512;42.662;23.254;2024-03-29T03:59:49;7.90;;;1.90;;
71679;SDS011;59512;42.662;23.254;2024-03-29T04:02:15;7.10;;;1.83;;
71679;SDS011;59512;42.662;23.254;2024-03-29T04:04:40;7.93;;;1.73;;
71679;SDS011;59512;42.662;23.254;2024-03-29T04:07:05;7.07;;;1.30;;
71679;SDS011;59512;42.662;23.254;2024-03-29T04:09:31;9.30;;;2.00;;
71679;SDS011;59512;42.662;23.254;2024-03-29T04:11:56;8.98;;;1.80;;
71679;SDS011;59512;42.662;23.254;2024-03-29T04:14:22;11.05;;;3.10;;
71679;SDS011;59512;42.662;23.254;2024-03-29T04:16:47;8.37;;;2.13;;
71679;SDS011;59512;42.662;23.254;2024-03-29T04:19:13;9.43;;;2.70;;
71679;SDS011;59512;42.662;23.254;2024-03-29T04:21:38;10.80;;;2.47;;
71679;SDS011;59512;42.662;23.254;2024-03-29T04:24:03;9.00;;;2.23;;
71679;SDS011;59512;42.662;23.254;2024-03-29T04:26:33;9.68;;;2.30;;
71679;SDS011;59512;42.662;23.254;2024-03-29T04:28:58;7.43;;;1.87;;
71679;SDS011;59512;42.662;23.254;2024-03-29T04:31:23;8.10;;;2.10;;
71679;SDS011;59512;42.662;23.254;2024-03-29T04:33:49;7.32;;;2.00;;
71679;SDS011;59512;42.662;23.254;2024-03-29T04:36:14;12.00;;;2.20;;
71679;SDS011;59512;42.662;23.254;2024-03-29T04:38:39;8.90;;;2.20;;
71679;SDS011;59512;42.662;23.254;2024-03-29T04:41:06;6.65;;;1.90;;
71679;SDS011;59512;42.662;23.254;2024-03-29T04:43:32;7.13;;;1.43;;
71679;SDS011;59512;42.662;23.254;2024-03-29T04:46:04;5.47;;;1.60;;
71679;SDS011;59512;42.662;23.254;2024-03-29T04:48:39;6.22;;;1.45;;
71679;SDS011;59512;42.662;23.254;2024-03-29T04:51:06;6.78;;;1.70;;
71679;SDS011;59512;42.662;23.254;2024-03-29T04:53:31;4.57;;;1.20;;
71679;SDS011;59512;42.662;23.254;2024-03-29T04:55:57;6.17;;;1.50;;
71679;SDS011;59512;42.662;23.254;2024-03-29T04:58:23;8.88;;;1.80;;
71679;SDS011;59512;42.662;23.254;2024-03-29T05:00:49;6.15;;;1.88;;
71679;SDS011;59512;42.662;23.254;2024-03-29T05:03:17;10.32;;;2.35;;
71679;SDS011;59512;42.662;23.254;2024-03-29T05:05:43;9.13;;;1.87;;
71679;SDS011;59512;42.662;23.254;2024-03-29T05:08:08;7.55;;;1.88;;
71679;SDS011;59512;42.662;23.254;2024-03-29T05:10:34;7.17;;;1.97;;
71679;SDS011;59512;42.662;23.254;2024-03-29T05:12:59;6.93;;;2.00;;
71679;SDS011;59512;42.662;23.254;2024-03-29T05:15:26;10.63;;;2.78;;
71679;SDS011;59512;42.662;23.254;2024-03-29T05:17:52;14.50;;;5.10;;
71679;SDS011;59512;42.662;23.254;2024-03-29T05:20:18;9.50;;;2.60;;
71679;SDS011;59512;42.662;23.254;2024-03-29T05:22:47;13.60;;;3.17;;
71679;SDS011;59512;42.662;23.254;2024-03-29T05:25:12;11.15;;;2.60;;
71679;SDS011;59512;42.662;23.254;2024-03-29T05:27:38;13.23;;;2.73;;
71679;SDS011;59512;42.662;23.254;2024-03-29T05:30:03;7.73;;;2.37;;
71679;SDS011;59512;42.662;23.254;2024-03-29T05:32:33;9.50;;;2.55;;
71679;SDS011;59512;42.662;23.254;2024-03-29T05:35:01;11.45;;;2.78;;
71679;SDS011;59512;42.662;23.254;2024-03-29T05:37:27;8.30;;;2.30;;
71679;SDS011;59512;42.662;23.254;2024-03-29T05:39:52;11.13;;;3.10;;
71679;SDS011;59512;42.662;23.254;2024-03-29T05:42:27;10.90;;;2.47;;
71679;SDS011;59512;42.662;23.254;2024-03-29T05:44:53;11.27;;;3.08;;
71679;SDS011;59512;42.662;23.254;2024-03-29T05:47:18;11.18;;;2.97;;
71679;SDS011;59512;42.662;23.254;2024-03-29T05:49:44;8.82;;;3.35;;
71679;SDS011;59512;42.662;23.254;2024-03-29T05:52:09;7.00;;;2.97;;
71679;SDS011;59512;42.662;23.254;2024-03-29T05:54:35;8.60;;;2.33;;
71679;SDS011;59512;42.662;23.254;2024-03-29T05:57:00;9.10;;;2.38;;
71679;SDS011;59512;42.662;23.254;2024-03-29T05:59:26;11.70;;;2.97;;
71679;SDS011;59512;42.662;23.254;2024-03-29T06:01:51;10.63;;;2.40;;
71679;SDS011;59512;42.662;23.254;2024-03-29T06:04:17;10.23;;;2.87;;
71679;SDS011;59512;42.662;23.254;2024-03-29T06:06:45;8.32;;;2.50;;
71679;SDS011;59512;42.662;23.254;2024-03-29T06:09:11;8.45;;;2.25;;
71679;SDS011;59512;42.662;23.254;2024-03-29T06:11:37;7.57;;;2.00;;
71679;SDS011;59512;42.662;23.254;2024-03-29T06:14:03;6.45;;;2.00;;
71679;SDS011;59512;42.662;23.254;2024-03-29T06:16:28;6.25;;;1.42;;
71679;SDS011;59512;42.662;23.254;2024-03-29T06:19:13;6.20;;;0.95;;
71679;SDS011;59512;42.662;23.254;2024-03-29T06:21:39;6.75;;;0.95;;
71679;SDS011;59512;42.662;23.254;2024-03-29T06:24:11;4.47;;;1.00;;
71679;SDS011;59512;42.662;23.254;2024-03-29T06:26:40;7.65;;;1.60;;
71679;SDS011;59512;42.662;23.254;2024-03-29T06:29:06;8.40;;;1.65;;
71679;SDS011;59512;42.662;23.254;2024-03-29T06:31:34;5.88;;;1.40;;
71679;SDS011;59512;42.662;23.254;2024-03-29T06:34:00;5.40;;;1.00;;
71679;SDS011;59512;42.662;23.254;2024-03-29T06:36:25;4.67;;;0.90;;
71679;SDS011;59512;42.662;23.254;2024-03-29T06:38:51;3.57;;;0.90;;
71679;SDS011;59512;42.662;23.254;2024-03-29T06:41:17;5.45;;;1.30;;
71679;SDS011;59512;42.662;23.254;2024-03-29T06:43:43;5.07;;;1.10;;
71679;SDS011;59512;42.662;23.254;2024-03-29T06:46:13;3.43;;;1.13;;
71679;SDS011;59512;42.662;23.254;2024-03-29T06:48:39;5.18;;;0.77;;
71679;SDS011;59512;42.662;23.254;2024-03-29T06:51:04;8.30;;;1.10;;
71679;SDS011;59512;42.662;23.254;2024-03-29T06:53:30;3.08;;;0.80;;
71679;SDS011;59512;42.662;23.254;2024-03-29T06:55:55;4.47;;;1.00;;
71679;SDS011;59512;42.662;23.254;2024-03-29T06:58:25;7.35;;;0.90;;
71679;SDS011;59512;42.662;23.254;2024-03-29T07:00:50;5.70;;;1.30;;
71679;SDS011;59512;42.662;23.254;2024-03-29T07:03:16;4.37;;;0.77;;
71679;SDS011;59512;42.662;23.254;2024-03-29T07:05:47;4.47;;;1.20;;
71679;SDS011;59512;42.662;23.254;2024-03-29T07:08:13;4.55;;;0.90;;
71679;SDS011;59512;42.662;23.254;2024-03-29T07:10:38;4.60;;;0.90;;
71679;SDS011;59512;42.662;23.254;2024-03-29T07:13:05;5.27;;;0.80;;
71679;SDS011;59512;42.662;23.254;2024-03-29T07:15:31;5.57;;;1.00;;
71679;SDS011;59512;42.662;23.254;2024-03-29T07:17:56;3.83;;;0.80;;
71679;SDS011;59512;42.662;23.254;2024-03-29T07:20:25;4.43;;;1.08;;
71679;SDS011;59512;42.662;23.254;2024-03-29T07:22:50;5.32;;;1.58;;
71679;SDS011;59512;42.662;23.254;2024-03-29T07:25:16;6.47;;;1.13;;
71679;SDS011;59512;42.662;23.254;2024-03-29T07:27:41;3.90;;;1.10;;
71679;SDS011;59512;42.662;23.254;2024-03-29T07:30:07;4.57;;;1.23;;
71679;SDS011;59512;42.662;23.254;2024-03-29T07:32:33;6.27;;;1.00;;
71679;SDS011;59512;42.662;23.254;2024-03-29T07:34:58;3.72;;;0.88;;
71679;SDS011;59512;42.662;23.254;2024-03-29T07:37:24;6.87;;;1.30;;
71679;SDS011;59512;42.662;23.254;2024-03-29T07:39:50;5.97;;;1.02;;
71679;SDS011;59512;42.662;23.254;2024-03-29T07:42:16;9.10;;;1.47;;
71679;SDS011;59512;42.662;23.254;2024-03-29T07:44:41;6.17;;;0.90;;
71679;SDS011;59512;42.662;23.254;2024-03-29T07:47:07;5.22;;;1.10;;
71679;SDS011;59512;42.662;23.254;2024-03-29T07:49:32;4.97;;;1.07;;
71679;SDS011;59512;42.662;23.254;2024-03-29T07:51:59;3.73;;;0.80;;
71679;SDS011;59512;42.662;23.254;2024-03-29T07:54:27;6.43;;;1.15;;
71679;SDS011;59512;42.662;23.254;2024-03-29T07:56:52;3.37;;;0.93;;
71679;SDS011;59512;42.662;23.254;2024-03-29T07:59:18;5.93;;;1.00;;
71679;SDS011;59512;42.662;23.254;2024-03-29T08:01:44;6.75;;;1.20;;
71679;SDS011;59512;42.662;23.254;2024-03-29T08:04:10;5.83;;;1.13;;
71679;SDS011;59512;42.662;23.254;2024-03-29T08:06:35;6.10;;;1.17;;
71679;SDS011;59512;42.662;23.254;2024-03-29T08:09:01;5.40;;;1.00;;
71679;SDS011;59512;42.662;23.254;2024-03-29T08:11:27;3.95;;;1.00;;
71679;SDS011;59512;42.662;23.254;2024-03-29T08:13:53;5.93;;;1.10;;
71679;SDS011;59512;42.662;23.254;2024-03-29T08:16:19;5.15;;;0.90;;
71679;SDS011;59512;42.662;23.254;2024-03-29T08:18:47;4.97;;;0.90;;
71679;SDS011;59512;42.662;23.254;2024-03-29T08:21:13;6.47;;;1.10;;
71679;SDS011;59512;42.662;23.254;2024-03-29T08:23:39;5.13;;;0.90;;
71679;SDS011;59512;42.662;23.254;2024-03-29T08:26:05;6.32;;;1.10;;
71679;SDS011;59512;42.662;23.254;2024-03-29T08:28:31;6.05;;;1.23;;
71679;SDS011;59512;42.662;23.254;2024-03-29T08:30:57;3.93;;;0.80;;
71679;SDS011;59512;42.662;23.254;2024-03-29T08:33:26;4.18;;;0.80;;
71679;SDS011;59512;42.662;23.254;2024-03-29T08:35:52;8.53;;;1.10;;
71679;SDS011;59512;42.662;23.254;2024-03-29T08:38:17;4.55;;;0.80;;
71679;SDS011;59512;42.662;23.254;2024-03-29T08:40:43;4.37;;;0.80;;
71679;SDS011;59512;42.662;23.254;2024-03-29T08:43:11;5.38;;;1.10;;
71679;SDS011;59512;42.662;23.254;2024-03-29T08:45:36;9.50;;;1.40;;
71679;SDS011;59512;42.662;23.254;2024-03-29T08:48:06;5.05;;;0.82;;
71679;SDS011;59512;42.662;23.254;2024-03-29T08:50:32;10.70;;;1.10;;
71679;SDS011;59512;42.662;23.254;2024-03-29T08:52:58;4.47;;;0.90;;
71679;SDS011;59512;42.662;23.254;2024-03-29T08:55:23;7.83;;;1.10;;
71679;SDS011;59512;42.662;23.254;2024-03-29T08:57:48;5.03;;;1.13;;
71679;SDS011;59512;42.662;23.254;2024-03-29T09:00:14;6.00;;;1.00;;
71679;SDS011;59512;42.662;23.254;2024-03-29T09:02:39;7.77;;;1.30;;
71679;SDS011;59512;42.662;23.254;2024-03-29T09:05:05;6.40;;;1.10;;
71679;SDS011;59512;42.662;23.254;2024-03-29T09:07:31;6.60;;;1.10;;
71679;SDS011;59512;42.662;23.254;2024-03-29T09:09:56;4.57;;;0.80;;
71679;SDS011;59512;42.662;23.254;2024-03-29T09:12:22;6.70;;;1.43;;
71679;SDS011;59512;42.662;23.254;2024-03-29T09:14:47;6.33;;;1.10;;
71679;SDS011;59512;42.662;23.254;2024-03-29T09:17:13;6.57;;;1.40;;
71679;SDS011;59512;42.662;23.254;2024-03-29T09:19:38;5.93;;;1.00;;
71679;SDS011;59512;42.662;23.254;2024-03-29T09:22:04;5.17;;;0.97;;
71679;SDS011;59512;42.662;23.254;2024-03-29T09:24:30;7.30;;;1.30;;
71679;SDS011;59512;42.662;23.254;2024-03-29T09:26:57;5.30;;;1.00;;
71679;SDS011;59512;42.662;23.254;2024-03-29T09:29:22;4.77;;;0.97;;
71679;SDS011;59512;42.662;23.254;2024-03-29T09:31:47;5.97;;;0.87;;
71679;SDS011;59512;42.662;23.254;2024-03-29T09:34:13;6.03;;;0.90;;
71679;SDS011;59512;42.662;23.254;2024-03-29T09:36:38;6.07;;;1.17;;
71679;SDS011;59512;42.662;23.254;2024-03-29T09:39:05;6.13;;;1.10;;
71679;SDS011;59512;42.662;23.254;2024-03-29T09:41:30;6.07;;;1.17;;
71679;SDS011;59512;42.662;23.254;2024-03-29T09:43:59;4.07;;;0.80;;
71679;SDS011;59512;42.662;23.254;2024-03-29T09:46:27;3.45;;;1.08;;
71679;SDS011;59512;42.662;23.254;2024-03-29T09:48:55;6.28;;;1.00;;
71679;SDS011;59512;42.662;23.254;2024-03-29T09:51:20;5.43;;;1.30;;
71679;SDS011;59512;42.662;23.254;2024-03-29T09:53:46;5.53;;;1.25;;
71679;SDS011;59512;42.662;23.254;2024-03-29T09:56:12;8.27;;;1.40;;
71679;SDS011;59512;42.662;23.254;2024-03-29T09:58:37;6.45;;;1.58;;
71679;SDS011;59512;42.662;23.254;2024-03-29T10:01:03;7.93;;;1.30;;
71679;SDS011;59512;42.662;23.254;2024-03-29T10:03:32;6.10;;;1.75;;
71679;SDS011;59512;42.662;23.254;2024-03-29T10:06:04;5.32;;;1.40;;
71679;SDS011;59512;42.662;23.254;2024-03-29T10:08:30;5.00;;;1.05;;
71679;SDS011;59512;42.662;23.254;2024-03-29T10:10:59;5.03;;;0.98;;
71679;SDS011;59512;42.662;23.254;2024-03-29T10:13:25;5.97;;;1.27;;
71679;SDS011;59512;42.662;23.254;2024-03-29T10:15:51;5.72;;;1.27;;
71679;SDS011;59512;42.662;23.254;2024-03-29T10:18:18;7.22;;;1.15;;
71679;SDS011;59512;42.662;23.254;2024-03-29T10:20:45;4.53;;;1.13;;
71679;SDS011;59512;42.662;23.254;2024-03-29T10:23:11;7.25;;;1.33;;
71679;SDS011;59512;42.662;23.254;2024-03-29T10:25:36;8.23;;;1.93;;
71679;SDS011;59512;42.662;23.254;2024-03-29T10:28:01;4.90;;;1.30;;
71679;SDS011;59512;42.662;23.254;2024-03-29T10:30:28;6.72;;;1.27;;
71679;SDS011;59512;42.662;23.254;2024-03-29T10:32:57;9.63;;;1.40;;
71679;SDS011;59512;42.662;23.254;2024-03-29T10:35:24;7.30;;;1.30;;
71679;SDS011;59512;42.662;23.254;2024-03-29T10:37:51;7.80;;;1.48;;
71679;SDS011;59512;42.662;23.254;2024-03-29T10:40:18;6.75;;;1.52;;
71679;SDS011;59512;42.662;23.254;2024-03-29T10:42:47;6.55;;;1.40;;
71679;SDS011;59512;42.662;23.254;2024-03-29T10:45:14;5.93;;;1.20;;
71679;SDS011;59512;42.662;23.254;2024-03-29T10:47:41;7.00;;;1.40;;
71679;SDS011;59512;42.662;23.254;2024-03-29T10:50:12;6.43;;;1.20;;
71679;SDS011;59512;42.662;23.254;2024-03-29T10:52:39;6.82;;;1.45;;
71679;SDS011;59512;42.662;23.254;2024-03-29T10:55:09;5.78;;;1.73;;
71679;SDS011;59512;42.662;23.254;2024-03-29T10:57:38;6.15;;;1.50;;
71679;SDS011;59512;42.662;23.254;2024-03-29T11:00:12;7.83;;;1.30;;
71679;SDS011;59512;42.662;23.254;2024-03-29T11:02:51;7.60;;;1.40;;
71679;SDS011;59512;42.662;23.254;2024-03-29T11:05:23;6.32;;;1.23;;
71679;SDS011;59512;42.662;23.254;2024-03-29T11:07:49;7.60;;;1.53;;
71679;SDS011;59512;42.662;23.254;2024-03-29T11:10:15;5.60;;;1.30;;
71679;SDS011;59512;42.662;23.254;2024-03-29T11:12:47;14.10;;;2.38;;
71679;SDS011;59512;42.662;23.254;2024-03-29T11:15:23;8.93;;;1.73;;
71679;SDS011;59512;42.662;23.254;2024-03-29T11:17:54;8.82;;;1.40;;
71679;SDS011;59512;42.662;23.254;2024-03-29T11:20:21;5.80;;;1.50;;
71679;SDS011;59512;42.662;23.254;2024-03-29T11:22:58;6.40;;;1.45;;
71679;SDS011;59512;42.662;23.254;2024-03-29T11:25:24;6.35;;;1.60;;
71679;SDS011;59512;42.662;23.254;2024-03-29T11:27:51;6.50;;;1.30;;
71679;SDS011;59512;42.662;23.254;2024-03-29T11:30:18;5.13;;;1.10;;
71679;SDS011;59512;42.662;23.254;2024-03-29T11:32:44;7.20;;;1.43;;
71679;SDS011;59512;42.662;23.254;2024-03-29T11:35:16;8.90;;;1.70;;
71679;SDS011;59512;42.662;23.254;2024-03-29T11:37:45;8.32;;;2.22;;
71679;SDS011;59512;42.662;23.254;2024-03-29T11:40:11;8.70;;;1.77;;
71679;SDS011;59512;42.662;23.254;2024-03-29T11:42:38;8.40;;;1.40;;
71679;SDS011;59512;42.662;23.254;2024-03-29T11:45:12;10.55;;;1.83;;
71679;SDS011;59512;42.662;23.254;2024-03-29T11:47:39;7.03;;;1.50;;
71679;SDS011;59512;42.662;23.254;2024-03-29T11:50:06;7.28;;;1.50;;
71679;SDS011;59512;42.662;23.254;2024-03-29T11:52:33;9.25;;;1.50;;
71679;SDS011;59512;42.662;23.254;2024-03-29T11:54:58;6.50;;;1.83;;
71679;SDS011;59512;42.662;23.254;2024-03-29T11:57:24;6.80;;;2.50;;
71679;SDS011;59512;42.662;23.254;2024-03-29T11:59:50;5.90;;;1.40;;
71679;SDS011;59512;42.662;23.254;2024-03-29T12:02:15;7.03;;;1.30;;
71679;SDS011;59512;42.662;23.254;2024-03-29T12:04:41;5.20;;;1.33;;
71679;SDS011;59512;42.662;23.254;2024-03-29T12:07:06;8.40;;;1.50;;
71679;SDS011;59512;42.662;23.254;2024-03-29T12:09:33;6.47;;;1.10;;
71679;SDS011;59512;42.662;23.254;2024-03-29T12:11:58;8.02;;;1.60;;
71679;SDS011;59512;42.662;23.254;2024-03-29T12:14:31;5.88;;;1.65;;
71679;SDS011;59512;42.662;23.254;2024-03-29T12:17:00;5.60;;;1.23;;
71679;SDS011;59512;42.662;23.254;2024-03-29T12:19:25;5.63;;;1.20;;
71679;SDS011;59512;42.662;23.254;2024-03-29T12:21:52;7.25;;;1.30;;
71679;SDS011;59512;42.662;23.254;2024-03-29T12:24:18;6.47;;;1.15;;
71679;SDS011;59512;42.662;23.254;2024-03-29T12:26:45;6.77;;;1.17;;
71679;SDS011;59512;42.662;23.254;2024-03-29T12:29:13;9.20;;;1.90;;
71679;SDS011;59512;42.662;23.254;2024-03-29T12:31:39;7.63;;;1.27;;
71679;SDS011;59512;42.662;23.254;2024-03-29T12:34:04;7.13;;;1.40;;
71679;SDS011;59512;42.662;23.254;2024-03-29T12:36:33;5.65;;;1.55;;
71679;SDS011;59512;42.662;23.254;2024-03-29T12:39:06;5.97;;;1.00;;
71679;SDS011;59512;42.662;23.254;2024-03-29T12:41:32;5.18;;;1.05;;
71679;SDS011;59512;42.662;23.254;2024-03-29T12:43:59;5.32;;;1.40;;
71679;SDS011;59512;42.662;23.254;2024-03-29T12:46:26;6.32;;;1.23;;
71679;SDS011;59512;42.662;23.254;2024-03-29T12:48:58;7.37;;;1.07;;
71679;SDS011;59512;42.662;23.254;2024-03-29T12:51:24;6.43;;;1.73;;
71679;SDS011;59512;42.662;23.254;2024-03-29T12:53:50;6.30;;;1.23;;
71679;SDS011;59512;42.662;23.254;2024-03-29T12:56:15;5.60;;;1.20;;
71679;SDS011;59512;42.662;23.254;2024-03-29T12:58:41;6.00;;;1.17;;
71679;SDS011;59512;42.662;23.254;2024-03-29T13:01:06;4.53;;;1.00;;
71679;SDS011;59512;42.662;23.254;2024-03-29T13:03:32;4.97;;;1.40;;
71679;SDS011;59512;42.662;23.254;2024-03-29T13:05:59;6.10;;;1.10;;
71679;SDS011;59512;42.662;23.254;2024-03-29T13:08:26;5.70;;;1.00;;
71679;SDS011;59512;42.662;23.254;2024-03-29T13:10:51;5.65;;;1.10;;
71679;SDS011;59512;42.662;23.254;2024-03-29T13:13:17;4.10;;;0.90;;
71679;SDS011;59512;42.662;23.254;2024-03-29T13:15:42;4.07;;;0.80;;
71679;SDS011;59512;42.662;23.254;2024-03-29T13:18:08;4.32;;;0.85;;
71679;SDS011;59512;42.662;23.254;2024-03-29T13:20:35;3.77;;;0.90;;
71679;SDS011;59512;42.662;23.254;2024-03-29T13:23:05;4.55;;;0.80;;
71679;SDS011;59512;42.662;23.254;2024-03-29T13:25:31;4.40;;;0.90;;
71679;SDS011;59512;42.662;23.254;2024-03-29T13:27:57;5.50;;;1.10;;
71679;SDS011;59512;42.662;23.254;2024-03-29T13:30:23;3.63;;;0.73;;
71679;SDS011;59512;42.662;23.254;2024-03-29T13:32:50;4.80;;;0.88;;
71679;SDS011;59512;42.662;23.254;2024-03-29T13:35:15;4.67;;;0.83;;
71679;SDS011;59512;42.662;23.254;2024-03-29T13:37:42;5.60;;;1.15;;
71679;SDS011;59512;42.662;23.254;2024-03-29T13:40:08;4.32;;;1.10;;
71679;SDS011;59512;42.662;23.254;2024-03-29T13:42:37;2.90;;;0.80;;
71679;SDS011;59512;42.662;23.254;2024-03-29T13:45:03;6.03;;;1.30;;
71679;SDS011;59512;42.662;23.254;2024-03-29T13:47:30;5.38;;;1.05;;
71679;SDS011;59512;42.662;23.254;2024-03-29T13:49:55;4.87;;;1.10;;
71679;SDS011;59512;42.662;23.254;2024-03-29T13:52:21;5.85;;;1.20;;
71679;SDS011;59512;42.662;23.254;2024-03-29T13:54:47;5.23;;;1.30;;
71679;SDS011;59512;42.662;23.254;2024-03-29T13:57:16;4.97;;;1.00;;
71679;SDS011;59512;42.662;23.254;2024-03-29T13:59:43;5.07;;;0.93;;
71679;SDS011;59512;42.662;23.254;2024-03-29T14:02:13;3.88;;;0.90;;
71679;SDS011;59512;42.662;23.254;2024-03-29T14:04:43;3.47;;;1.02;;
71679;SDS011;59512;42.662;23.254;2024-03-29T14:07:11;3.30;;;0.93;;
71679;SDS011;59512;42.662;23.254;2024-03-29T14:09:38;3.75;;;1.10;;
71679;SDS011;59512;42.662;23.254;2024-03-29T14:12:04;3.55;;;1.00;;
71679;SDS011;59512;42.662;23.254;2024-03-29T14:14:31;3.50;;;0.90;;
71679;SDS011;59512;42.662;23.254;2024-03-29T14:16:59;3.92;;;0.80;;
71679;SDS011;59512;42.662;23.254;2024-03-29T14:19:32;3.43;;;0.80;;
71679;SDS011;59512;42.662;23.254;2024-03-29T14:22:09;4.40;;;1.05;;
71679;SDS011;59512;42.662;23.254;2024-03-29T14:24:37;6.07;;;1.13;;
71679;SDS011;59512;42.662;23.254;2024-03-29T14:27:04;4.40;;;1.15;;
71679;SDS011;59512;42.662;23.254;2024-03-29T14:29:31;6.05;;;0.98;;